Time;durP1;ratioP1;P1;durP2;ratioP2;P2;SDS_P1;SDS_P2;PMS_P1;PMS_P2;Temp;Humidity;BMP_temperature;BMP_pressure;BME280_temperature;BME280_humidity;BME280_pressure;Samples;Min_cycle;Max_cycle;Signal;HPM_P1;HPM_P2
2022/11/07 00:02:07;;;;;;;15.65;11.88;;;10.20;99.90;;;;;;4922016;29;20107;-63
2022/11/07 00:04:34;;;;;;;14.70;11.18;;;10.40;99.90;;;;;;4921532;29;20381;-64
2022/11/07 00:07:00;;;;;;;17.52;11.98;;;10.10;99.90;;;;;;4903897;29;20048;-62
2022/11/07 00:09:26;;;;;;;14.75;11.57;;;10.40;99.90;;;;;;4921751;29;20044;-63
2022/11/07 00:11:52;;;;;;;17.58;10.70;;;10.40;99.90;;;;;;4920500;29;20419;-64
2022/11/07 00:14:17;;;;;;;16.38;11.18;;;10.10;99.90;;;;;;4922286;29;20051;-64
2022/11/07 00:16:45;;;;;;;15.20;10.85;;;10.30;99.90;;;;;;4921001;29;20075;-64
2022/11/07 00:19:13;;;;;;;13.57;10.38;;;10.10;99.90;;;;;;4921797;29;20478;-64
2022/11/07 00:21:39;;;;;;;16.77;10.38;;;10.10;99.90;;;;;;4921330;29;20083;-63
2022/11/07 00:24:06;;;;;;;14.38;10.07;;;10.40;99.90;;;;;;4923638;29;20051;-64
2022/11/07 00:26:32;;;;;;;14.68;10.20;;;10.10;99.90;;;;;;4925112;29;20048;-63
2022/11/07 00:28:58;;;;;;;15.48;10.13;;;10.10;99.90;;;;;;4923925;29;20096;-64
2022/11/07 00:31:24;;;;;;;15.80;10.10;;;10.30;99.90;;;;;;4925334;29;20044;-64
2022/11/07 00:33:50;;;;;;;14.98;9.43;;;10.40;99.90;;;;;;4924097;29;20060;-64
2022/11/07 00:36:19;;;;;;;13.88;10.55;;;10.10;99.90;;;;;;4924857;29;20527;-64
2022/11/07 00:38:45;;;;;;;14.52;9.93;;;10.30;99.90;;;;;;4924803;29;20048;-62
2022/11/07 00:41:10;;;;;;;17.05;10.60;;;10.20;99.90;;;;;;4924201;29;20063;-64
2022/11/07 00:43:36;;;;;;;15.93;10.13;;;10.10;99.90;;;;;;4924624;29;20048;-64
2022/11/07 00:46:04;;;;;;;15.10;10.55;;;10.50;99.90;;;;;;4923717;29;20404;-63
2022/11/07 00:48:30;;;;;;;14.80;9.15;;;10.50;99.90;;;;;;4924724;29;20051;-64
2022/11/07 00:50:56;;;;;;;21.98;10.30;;;10.20;99.90;;;;;;4906511;29;20063;-64
2022/11/07 00:53:22;;;;;;;16.13;9.68;;;10.20;99.90;;;;;;4907650;29;20184;-64
2022/11/07 00:55:48;;;;;;;13.98;9.73;;;10.20;99.90;;;;;;4924175;29;20044;-63
2022/11/07 00:58:15;;;;;;;17.65;10.20;;;10.30;99.90;;;;;;4923850;29;20108;-63
2022/11/07 01:00:42;;;;;;;17.15;9.93;;;10.50;99.90;;;;;;4924328;29;20080;-63
2022/11/07 01:06:01;;;;;;;14.00;9.25;;;10.40;99.90;;;;;;4924843;29;20562;-63
2022/11/07 01:08:27;;;;;;;19.38;10.50;;;10.20;99.90;;;;;;4923800;29;20055;-63
2022/11/07 01:10:53;;;;;;;17.75;9.70;;;10.20;99.90;;;;;;4923776;29;20048;-63
2022/11/07 01:13:19;;;;;;;21.02;10.05;;;10.60;99.90;;;;;;4891345;29;20044;-66
2022/11/07 01:15:45;;;;;;;17.77;10.68;;;10.50;99.90;;;;;;4923398;29;20050;-67
2022/11/07 01:18:11;;;;;;;19.67;11.07;;;10.50;99.90;;;;;;4924387;29;20051;-68
2022/11/07 01:20:36;;;;;;;15.98;10.18;;;10.40;99.90;;;;;;4922803;29;20100;-69
2022/11/07 01:23:02;;;;;;;17.08;10.32;;;10.70;99.90;;;;;;4907481;29;20052;-68
2022/11/07 01:25:28;;;;;;;18.48;11.25;;;10.50;99.90;;;;;;4923178;29;20040;-67
2022/11/07 01:27:54;;;;;;;18.15;10.15;;;10.40;99.90;;;;;;4923849;29;20373;-67
2022/11/07 01:30:19;;;;;;;15.85;9.52;;;10.70;99.90;;;;;;4923961;29;20048;-66
2022/11/07 01:32:45;;;;;;;15.48;9.93;;;10.20;99.90;;;;;;4923119;29;20052;-67
2022/11/07 01:35:10;;;;;;;18.42;10.50;;;10.50;99.90;;;;;;4923982;29;20488;-66
2022/11/07 01:37:36;;;;;;;18.17;9.13;;;10.60;99.90;;;;;;4922380;29;20036;-66
2022/11/07 01:40:02;;;;;;;16.70;10.65;;;10.70;99.90;;;;;;4924206;29;20048;-65
2022/11/07 01:42:28;;;;;;;14.30;9.13;;;10.20;99.90;;;;;;4905324;29;20044;-65
2022/11/07 01:44:56;;;;;;;21.50;9.13;;;10.50;99.90;;;;;;4923618;29;20044;-65
2022/11/07 01:47:30;;;;;;;18.00;9.88;;;10.00;99.90;;;;;;4923284;29;20043;-65
2022/11/07 01:49:56;;;;;;;19.15;9.95;;;10.50;99.90;;;;;;4922873;29;20063;-64
2022/11/07 01:52:27;;;;;;;15.05;9.43;;;10.50;99.90;;;;;;4923799;29;20138;-65
2022/11/07 01:55:18;;;;;;;21.35;11.07;;;10.60;99.90;;;;;;4922297;29;20044;-65
2022/11/07 01:58:07;;;;;;;21.50;9.15;;;10.10;99.90;;;;;;4912190;29;20052;-65
2022/11/07 02:00:34;;;;;;;22.98;9.65;;;10.60;99.90;;;;;;4923176;29;20123;-64
2022/11/07 02:03:05;;;;;;;18.52;10.77;;;10.20;99.90;;;;;;4922326;29;20044;-64
2022/11/07 02:05:34;;;;;;;17.38;9.75;;;10.40;99.90;;;;;;4923308;29;20052;-65
2022/11/07 02:08:03;;;;;;;13.95;10.45;;;10.50;99.90;;;;;;4922303;29;20044;-65
2022/11/07 02:10:29;;;;;;;15.15;9.98;;;10.40;99.90;;;;;;4923431;29;20078;-64
2022/11/07 02:12:58;;;;;;;18.17;9.75;;;10.30;99.90;;;;;;4922683;29;20044;-64
2022/11/07 02:15:26;;;;;;;16.05;9.57;;;10.60;99.90;;;;;;4905242;29;20333;-65
2022/11/07 02:17:52;;;;;;;17.20;8.43;;;10.20;99.90;;;;;;4923275;29;20052;-65
2022/11/07 02:20:18;;;;;;;16.83;8.43;;;10.20;99.90;;;;;;4905060;29;20076;-65
2022/11/07 02:22:56;;;;;;;16.17;8.00;;;10.60;99.90;;;;;;4923325;29;20047;-64
2022/11/07 02:25:22;;;;;;;13.80;7.28;;;10.40;99.90;;;;;;4922173;29;20102;-65
2022/11/07 02:27:53;;;;;;;13.90;6.85;;;10.60;99.90;;;;;;4923118;29;20157;-65
2022/11/07 02:30:22;;;;;;;14.32;7.10;;;10.30;99.90;;;;;;4922667;29;20067;-64
2022/11/07 02:32:48;;;;;;;16.77;6.43;;;10.60;99.90;;;;;;4905004;29;20075;-65
2022/11/07 02:35:40;;;;;;;11.85;5.85;;;10.60;99.90;;;;;;4923130;29;20048;-63
2022/11/07 02:38:13;;;;;;;15.63;7.20;;;10.70;99.90;;;;;;4922000;29;20126;-66
2022/11/07 02:40:39;;;;;;;;;;;10.50;99.90;;;;;;4923459;29;20184;-67
2022/11/07 02:43:08;;;;;;;12.52;5.72;;;10.70;99.90;;;;;;4921952;29;19938;-68
2022/11/07 02:45:36;;;;;;;14.45;5.93;;;10.70;99.90;;;;;;4921162;29;20055;-68
2022/11/07 02:48:03;;;;;;;14.68;5.60;;;10.70;99.90;;;;;;4922868;29;20460;-68
2022/11/07 02:50:28;;;;;;;12.00;5.38;;;10.30;99.90;;;;;;4921286;29;20052;-68
2022/11/07 02:52:54;;;;;;;17.58;5.88;;;10.30;99.90;;;;;;4922776;29;20072;-67
2022/11/07 02:55:20;;;;;;;13.60;5.40;;;10.30;99.90;;;;;;4921901;29;20421;-67
2022/11/07 02:57:46;;;;;;;13.75;5.05;;;10.50;99.90;;;;;;4922429;29;20098;-67
2022/11/07 03:00:13;;;;;;;14.98;5.55;;;10.40;99.90;;;;;;4922200;29;20048;-67
2022/11/07 03:02:45;;;;;;;17.05;6.30;;;10.70;99.90;;;;;;4904792;29;20048;-67
2022/11/07 03:05:12;;;;;;;13.18;5.20;;;10.30;99.90;;;;;;4922647;29;20040;-67
2022/11/07 03:07:38;;;;;;;15.10;7.03;;;10.30;99.90;;;;;;4920846;29;20074;-67
2022/11/07 03:10:04;;;;;;;12.60;5.32;;;10.20;99.90;;;;;;4922584;29;20048;-66
2022/11/07 03:12:29;;;;;;;11.07;5.82;;;10.30;99.90;;;;;;4904147;29;20047;-66
2022/11/07 03:14:55;;;;;;;15.18;4.93;;;10.30;99.90;;;;;;4922098;29;20054;-66
2022/11/07 03:17:21;;;;;;;13.82;5.05;;;10.30;99.90;;;;;;4904920;29;20424;-65
2022/11/07 03:19:46;;;;;;;13.68;4.75;;;10.30;99.90;;;;;;4921512;29;20569;-65
2022/11/07 03:22:12;;;;;;;16.75;5.50;;;10.40;99.90;;;;;;4922402;29;20103;-66
2022/11/07 03:24:37;;;;;;;15.20;5.50;;;10.80;99.90;;;;;;4920800;29;20127;-67
2022/11/07 03:27:03;;;;;;;22.10;5.65;;;10.60;99.90;;;;;;4889864;29;20067;-69
2022/11/07 03:29:29;;;;;;;10.57;5.20;;;10.40;99.90;;;;;;4921208;29;20450;-70
2022/11/07 03:31:54;;;;;;;16.00;5.60;;;10.30;99.90;;;;;;4922148;29;20099;-71
2022/11/07 03:34:20;;;;;;;15.73;5.70;;;10.40;99.90;;;;;;4921469;29;20062;-74
2022/11/07 03:36:46;;;;;;;13.88;6.03;;;10.60;99.90;;;;;;4921524;29;20052;-74
2022/11/07 03:39:11;;;;;;;16.45;5.65;;;10.20;99.90;;;;;;4921681;29;20056;-72
2022/11/07 03:41:37;;;;;;;15.20;5.30;;;10.70;99.90;;;;;;4904041;29;20083;-74
2022/11/07 03:44:03;;;;;;;17.90;5.18;;;10.20;99.90;;;;;;4922105;29;20076;-74
2022/11/07 03:46:28;;;;;;;12.13;5.38;;;10.60;99.90;;;;;;4921185;29;20093;-74
2022/11/07 03:48:54;;;;;;;19.13;5.00;;;10.60;99.90;;;;;;4920647;29;20047;-73
2022/11/07 03:51:20;;;;;;;18.05;5.25;;;10.10;99.90;;;;;;4910374;29;20127;-71
2022/11/07 03:53:45;;;;;;;14.48;5.22;;;10.60;99.90;;;;;;4914726;29;20045;-69
2022/11/07 03:56:12;;;;;;;16.40;5.25;;;10.30;99.90;;;;;;4902842;29;20068;-69
2022/11/07 03:58:38;;;;;;;13.00;4.30;;;10.20;99.90;;;;;;4898486;29;20603;-68
2022/11/07 04:01:05;;;;;;;13.35;4.20;;;10.10;99.90;;;;;;4908488;29;20052;-67
2022/11/07 04:03:31;;;;;;;14.52;4.20;;;10.30;99.90;;;;;;4907555;29;20055;-66
2022/11/07 04:05:57;;;;;;;14.35;3.72;;;10.30;99.90;;;;;;4923827;29;20048;-66
2022/11/07 04:08:23;;;;;;;17.30;4.53;;;10.20;99.90;;;;;;4888709;29;20055;-66
2022/11/07 04:10:48;;;;;;;16.85;3.92;;;10.50;99.90;;;;;;4905828;29;20104;-66
2022/11/07 04:18:43;;;;;;;15.52;3.60;;;10.50;99.90;;;;;;4906135;29;20135;-66
2022/11/07 04:21:09;;;;;;;17.25;5.10;;;10.20;99.90;;;;;;4905437;29;20090;-65
2022/11/07 04:23:35;;;;;;;18.70;4.25;;;10.00;99.90;;;;;;4912091;29;20048;-65
2022/11/07 04:28:44;;;;;;;16.27;4.20;;;10.40;99.90;;;;;;4923790;29;20611;-65
2022/11/07 04:31:10;;;;;;;15.48;4.55;;;10.20;99.90;;;;;;4924915;29;20052;-65
2022/11/07 04:33:36;;;;;;;15.68;5.38;;;10.40;99.90;;;;;;4923862;29;20044;-65
2022/11/07 04:36:02;;;;;;;17.95;4.13;;;9.90;99.90;;;;;;4924937;29;20520;-65
2022/11/07 04:38:27;;;;;;;18.30;4.43;;;10.30;99.90;;;;;;4907251;29;20144;-64
2022/11/07 04:40:57;;;;;;;15.95;4.30;;;10.40;99.90;;;;;;4906959;29;20055;-64
2022/11/07 04:43:24;;;;;;;15.60;4.50;;;10.00;99.90;;;;;;4924563;29;20051;-72
2022/11/07 04:45:50;;;;;;;14.02;4.38;;;10.00;99.90;;;;;;4923330;29;20044;-75
2022/11/07 04:48:16;;;;;;;18.33;5.45;;;10.40;99.90;;;;;;4925173;29;20048;-73
2022/11/07 04:50:43;;;;;;;14.43;4.95;;;10.30;99.90;;;;;;4906351;29;20052;-76
2022/11/07 04:53:13;;;;;;;17.70;6.10;;;10.10;99.90;;;;;;4924896;29;20036;-74
2022/11/07 04:55:39;;;;;;;14.55;4.85;;;10.50;99.90;;;;;;4924215;29;20072;-72
2022/11/07 04:58:04;;;;;;;21.50;5.43;;;10.60;99.90;;;;;;4914659;29;20056;-70
2022/11/07 05:00:30;;;;;;;15.00;4.95;;;10.60;99.90;;;;;;4888427;29;20052;-70
2022/11/07 05:02:56;;;;;;;15.98;4.72;;;10.20;99.90;;;;;;4904633;29;20045;-71
2022/11/07 05:05:21;;;;;;;13.60;4.68;;;10.00;99.90;;;;;;4905672;29;20044;-70
2022/11/07 05:07:47;;;;;;;16.92;5.10;;;10.00;99.90;;;;;;4904483;29;20456;-66
2022/11/07 05:10:22;;;;;;;12.45;4.50;;;10.00;99.90;;;;;;4905065;29;20422;-68
2022/11/07 05:12:47;;;;;;;13.48;4.78;;;10.20;99.90;;;;;;4904587;29;20108;-66
2022/11/07 05:15:14;;;;;;;13.82;4.65;;;10.10;99.90;;;;;;4887534;29;20095;-67
2022/11/07 05:17:39;;;;;;;17.65;5.75;;;10.20;99.90;;;;;;4905088;29;20049;-67
2022/11/07 05:20:05;;;;;;;14.82;5.57;;;10.70;99.90;;;;;;4904499;29;20047;-67
2022/11/07 05:25:16;;;;;;;14.07;6.05;;;10.50;99.90;;;;;;4904285;29;20055;-65
2022/11/07 05:27:42;;;;;;;15.07;5.60;;;10.50;99.90;;;;;;4905102;29;20048;-65
2022/11/07 05:30:09;;;;;;;18.48;5.88;;;10.60;99.90;;;;;;4887625;29;20059;-65
2022/11/07 05:32:40;;;;;;;18.08;6.30;;;10.50;99.90;;;;;;4903680;29;20072;-65
2022/11/07 05:35:06;;;;;;;17.80;5.18;;;10.50;99.90;;;;;;4905171;29;20079;-65
2022/11/07 05:37:31;;;;;;;14.65;4.95;;;10.00;99.90;;;;;;4903525;29;20060;-65
2022/11/07 05:39:57;;;;;;;15.52;5.30;;;9.90;99.90;;;;;;4905302;29;20493;-65
2022/11/07 05:42:23;;;;;;;16.10;5.05;;;10.00;99.90;;;;;;4903814;29;20044;-64
2022/11/07 05:44:48;;;;;;;15.52;5.15;;;10.00;99.90;;;;;;4904825;29;20089;-64
2022/11/07 05:47:14;;;;;;;19.05;5.43;;;10.40;99.90;;;;;;4904554;29;20058;-65
2022/11/07 05:49:40;;;;;;;20.00;6.53;;;9.90;99.90;;;;;;4903738;29;20117;-65
2022/11/07 05:52:05;;;;;;;16.75;6.13;;;10.40;99.90;;;;;;4887918;29;20453;-65
2022/11/07 05:54:31;;;;;;;13.48;4.90;;;10.30;99.90;;;;;;4903623;29;20047;-65
2022/11/07 05:56:58;;;;;;;20.77;5.60;;;10.50;99.90;;;;;;4905688;29;20504;-67
2022/11/07 05:59:23;;;;;;;13.68;5.50;;;10.30;99.90;;;;;;4922760;29;20127;-70
2022/11/07 06:01:50;;;;;;;19.65;6.20;;;10.50;99.90;;;;;;4906739;29;20112;-71
2022/11/07 06:04:15;;;;;;;13.98;6.18;;;10.00;99.90;;;;;;4923241;29;20053;-70
2022/11/07 06:06:41;;;;;;;14.57;6.20;;;10.10;99.90;;;;;;4905255;29;20056;-69
2022/11/07 06:09:07;;;;;;;12.98;5.63;;;9.90;99.90;;;;;;4923307;29;20044;-68
2022/11/07 06:11:32;;;;;;;13.00;6.15;;;9.90;99.90;;;;;;4922069;29;20540;-68
2022/11/07 06:13:58;;;;;;;18.20;6.35;;;10.40;99.90;;;;;;4923673;29;20096;-67
2022/11/07 06:16:24;;;;;;;16.42;6.40;;;10.40;99.90;;;;;;4921721;29;20048;-66
2022/11/07 06:18:49;;;;;;;19.08;7.35;;;9.90;99.90;;;;;;4923622;29;20040;-65
2022/11/07 06:21:15;;;;;;;17.48;6.28;;;10.40;99.90;;;;;;4921932;29;20090;-66
2022/11/07 06:23:42;;;;;;;14.43;6.50;;;9.90;99.90;;;;;;4922316;29;20044;-65
2022/11/07 06:26:07;;;;;;;14.52;6.30;;;10.30;99.90;;;;;;4922572;29;20703;-65
2022/11/07 06:28:33;;;;;;;13.88;6.00;;;10.30;99.90;;;;;;4922000;29;20068;-66
2022/11/07 06:31:00;;;;;;;13.40;6.45;;;9.90;99.90;;;;;;4922883;29;20058;-66
2022/11/07 06:33:26;;;;;;;13.85;6.90;;;10.40;99.90;;;;;;4921480;29;20103;-65
2022/11/07 06:35:51;;;;;;;18.85;7.38;;;10.10;99.90;;;;;;4923164;29;20051;-66
2022/11/07 06:38:17;;;;;;;14.85;7.32;;;9.90;99.90;;;;;;4900773;29;20123;-66
2022/11/07 06:40:43;;;;;;;15.75;7.32;;;10.40;99.90;;;;;;4917977;29;20497;-65
2022/11/07 06:43:16;;;;;;;20.30;7.53;;;10.40;99.90;;;;;;4917803;29;20093;-65
2022/11/07 06:45:42;;;;;;;19.00;7.97;;;10.40;99.90;;;;;;4914892;29;20083;-65
2022/11/07 06:48:08;;;;;;;18.33;6.43;;;9.80;99.90;;;;;;4918929;29;20071;-65
2022/11/07 06:50:34;;;;;;;17.15;7.07;;;9.90;99.90;;;;;;4917380;29;20631;-65
2022/11/07 06:53:05;;;;;;;17.30;6.07;;;10.40;99.90;;;;;;4918883;29;20064;-65
2022/11/07 06:55:33;;;;;;;17.70;6.00;;;9.90;99.90;;;;;;4918227;29;20414;-64
2022/11/07 06:58:00;;;;;;;13.90;5.95;;;9.90;99.90;;;;;;4909676;29;20053;-64
2022/11/07 07:00:27;;;;;;;18.10;5.95;;;9.90;99.90;;;;;;4899574;29;20064;-64
2022/11/07 07:02:53;;;;;;;14.52;4.72;;;10.30;99.90;;;;;;4898381;29;20125;-65
2022/11/07 07:05:19;;;;;;;11.80;5.10;;;10.30;99.90;;;;;;4900210;29;20060;-65
2022/11/07 07:07:44;;;;;;;12.85;4.82;;;9.90;99.90;;;;;;4899035;29;20135;-64
2022/11/07 07:10:10;;;;;;;13.75;5.30;;;9.90;99.90;;;;;;4900641;29;20123;-64
2022/11/07 07:12:35;;;;;;;12.38;5.30;;;10.10;99.90;;;;;;4899163;29;20087;-64
2022/11/07 07:15:01;;;;;;;14.77;4.97;;;10.40;99.90;;;;;;4899804;29;20048;-65
2022/11/07 07:17:27;;;;;;;16.33;5.30;;;10.40;99.90;;;;;;4899981;29;20048;-66
2022/11/07 07:19:53;;;;;;;19.40;5.53;;;10.00;99.90;;;;;;4899357;29;20107;-67
2022/11/07 07:22:18;;;;;;;17.98;5.70;;;10.00;99.90;;;;;;4900214;29;20064;-69
2022/11/07 07:24:44;;;;;;;17.50;6.07;;;10.60;99.90;;;;;;4898891;29;20063;-72
2022/11/07 07:27:10;;;;;;;14.38;6.05;;;10.50;99.90;;;;;;4900468;29;20052;-73
2022/11/07 07:29:36;;;;;;;18.70;6.47;;;10.00;99.90;;;;;;4899095;29;20414;-72
2022/11/07 07:32:02;;;;;;;17.08;6.65;;;10.10;99.90;;;;;;4901443;29;20098;-72
2022/11/07 07:34:27;;;;;;;19.60;7.82;;;10.20;99.90;;;;;;4904006;29;20068;-71
2022/11/07 07:36:53;;;;;;;18.98;9.15;;;10.70;99.90;;;;;;4903397;29;20079;-70
2022/11/07 07:39:18;;;;;;;17.85;7.40;;;10.90;99.90;;;;;;4922452;29;20051;-69
2022/11/07 07:41:45;;;;;;;19.45;8.75;;;10.50;99.90;;;;;;4920837;29;20048;-69
2022/11/07 07:44:11;;;;;;;19.33;9.32;;;10.70;99.90;;;;;;4921539;29;20048;-67
2022/11/07 07:46:36;;;;;;;21.98;9.13;;;10.70;99.90;;;;;;4921436;29;20079;-69
2022/11/07 07:49:02;;;;;;;21.20;8.98;;;10.20;99.90;;;;;;4904694;29;20044;-67
2022/11/07 07:51:28;;;;;;;21.83;8.90;;;10.30;99.90;;;;;;4921417;29;20051;-68
2022/11/07 07:53:53;;;;;;;21.40;9.95;;;10.20;99.90;;;;;;4904436;29;20040;-69
2022/11/07 07:56:19;;;;;;;21.17;10.00;;;10.10;99.90;;;;;;4922691;29;20068;-70
2022/11/07 07:58:45;;;;;;;24.98;10.50;;;10.30;99.90;;;;;;4921267;29;20174;-71
2022/11/07 08:01:11;;;;;;;20.05;10.25;;;10.30;99.90;;;;;;4922386;29;20052;-70
2022/11/07 08:03:37;;;;;;;22.85;11.00;;;10.70;99.90;;;;;;4920186;29;20408;-71
2022/11/07 08:06:04;;;;;;;21.42;11.48;;;10.80;99.90;;;;;;4921685;29;20036;-73
2022/11/07 08:08:31;;;;;;;20.48;11.18;;;10.40;99.90;;;;;;4904900;29;20048;-71
2022/11/07 08:11:05;;;;;;;22.52;10.38;;;10.70;99.90;;;;;;4921303;29;20067;-69
2022/11/07 08:13:31;;;;;;;21.67;10.25;;;10.60;99.90;;;;;;4921957;29;20436;-68
2022/11/07 08:15:57;;;;;;;25.33;10.32;;;10.80;99.90;;;;;;4920850;29;20047;-69
2022/11/07 08:18:23;;;;;;;24.27;10.13;;;10.40;99.90;;;;;;4921535;29;20052;-68
2022/11/07 08:20:51;;;;;;;24.27;10.75;;;10.90;99.90;;;;;;4920565;29;20073;-68
2022/11/07 08:23:17;;;;;;;20.02;10.25;;;10.70;99.90;;;;;;4902989;29;20056;-69
2022/11/07 08:25:49;;;;;;;23.48;11.18;;;10.30;99.90;;;;;;4890342;29;20056;-69
2022/11/07 08:28:15;;;;;;;24.00;10.18;;;10.60;99.90;;;;;;4920987;29;20056;-70
2022/11/07 08:30:41;;;;;;;25.38;10.02;;;10.90;99.90;;;;;;4921208;29;20044;-71
2022/11/07 08:33:07;;;;;;;21.45;9.48;;;10.70;99.90;;;;;;4903257;29;20548;-71
2022/11/07 08:35:33;;;;;;;20.75;9.80;;;10.50;99.90;;;;;;4904421;29;20056;-68
2022/11/07 08:37:58;;;;;;;29.77;10.38;;;10.40;99.90;;;;;;4903276;29;20044;-68
2022/11/07 08:40:25;;;;;;;23.48;9.85;;;11.00;99.90;;;;;;4920495;29;20056;-68
2022/11/07 08:42:50;;;;;;;27.60;10.98;;;11.00;99.90;;;;;;4920308;29;20051;-67
2022/11/07 08:45:16;;;;;;;23.85;9.85;;;10.50;99.90;;;;;;4920059;29;20506;-68
2022/11/07 08:47:42;;;;;;;21.30;9.43;;;10.40;99.90;;;;;;4921678;29;20047;-67
2022/11/07 08:50:08;;;;;;;19.27;9.75;;;10.50;99.90;;;;;;4919665;29;20132;-67
2022/11/07 08:52:37;;;;;;;21.00;8.25;;;11.00;99.90;;;;;;4921370;29;20044;-66
2022/11/07 08:55:03;;;;;;;25.42;9.98;;;10.90;99.90;;;;;;4920263;29;20092;-67
2022/11/07 08:57:29;;;;;;;18.85;8.95;;;10.90;99.90;;;;;;4918785;29;20055;-67
2022/11/07 08:59:55;;;;;;;24.75;9.55;;;11.10;99.90;;;;;;4920713;29;20402;-68
2022/11/07 09:02:20;;;;;;;23.30;9.48;;;10.80;99.90;;;;;;4902233;29;20100;-69
2022/11/07 09:04:46;;;;;;;21.05;9.02;;;10.70;99.90;;;;;;4920484;29;20083;-69
2022/11/07 09:07:12;;;;;;;24.83;9.95;;;11.10;99.90;;;;;;4919796;29;20044;-69
2022/11/07 09:09:37;;;;;;;18.77;8.50;;;10.90;99.90;;;;;;4920794;29;20340;-68
2022/11/07 09:12:03;;;;;;;24.75;9.50;;;11.20;99.90;;;;;;4901931;29;20314;-67
2022/11/07 09:14:29;;;;;;;23.92;8.82;;;10.70;99.90;;;;;;4920929;29;20076;-67
2022/11/07 09:16:54;;;;;;;18.73;8.63;;;11.30;99.90;;;;;;4920483;29;20047;-67
2022/11/07 09:19:20;;;;;;;21.35;8.38;;;10.70;99.90;;;;;;4920574;29;20083;-67
2022/11/07 09:21:45;;;;;;;23.20;9.10;;;11.10;99.90;;;;;;4920974;29;20549;-66
2022/11/07 09:24:11;;;;;;;22.40;8.13;;;10.90;99.90;;;;;;4920220;29;20112;-66
2022/11/07 09:26:37;;;;;;;17.10;6.72;;;11.40;99.90;;;;;;4903385;29;20135;-66
2022/11/07 09:29:03;;;;;;;19.77;7.32;;;11.40;99.90;;;;;;4919274;29;20075;-66
2022/11/07 09:31:28;;;;;;;16.42;7.38;;;11.30;99.90;;;;;;4920772;29;20040;-65
2022/11/07 09:33:54;;;;;;;20.90;8.50;;;10.90;99.90;;;;;;4919996;29;20060;-64
2022/11/07 09:36:21;;;;;;;22.08;6.43;;;11.60;99.90;;;;;;4920565;29;20048;-65
2022/11/07 09:38:46;;;;;;;18.20;6.38;;;11.70;99.90;;;;;;4920187;29;20059;-65
2022/11/07 09:41:53;;;;;;;19.05;6.88;;;11.60;99.90;;;;;;4919400;29;20052;-65
2022/11/07 09:44:34;;;;;;;18.65;6.97;;;11.10;99.90;;;;;;4877156;29;20060;-65
2022/11/07 09:47:21;;;;;;;13.27;5.57;;;11.60;99.90;;;;;;4919853;29;20131;-64
2022/11/07 09:49:53;;;;;;;16.95;5.72;;;11.20;99.90;;;;;;4900247;29;20056;-65
2022/11/07 09:52:45;;;;;;;20.23;7.10;;;11.30;99.90;;;;;;4901547;29;20052;-64
2022/11/07 09:55:28;;;;;;;17.13;5.88;;;11.70;99.90;;;;;;4899775;29;20156;-64
2022/11/07 09:57:59;;;;;;;17.50;7.22;;;11.50;99.90;;;;;;4908216;29;20036;-65
2022/11/07 10:00:28;;;;;;;19.67;6.50;;;11.30;99.90;;;;;;4919959;29;20148;-65
2022/11/07 10:02:57;;;;;;;19.70;7.40;;;11.20;99.90;;;;;;4918720;29;20096;-65
2022/11/07 10:05:35;;;;;;;22.02;7.28;;;11.30;99.90;;;;;;4920046;29;20123;-67
2022/11/07 10:08:24;;;;;;;21.05;6.65;;;11.40;99.90;;;;;;4918387;29;20068;-65
2022/11/07 10:11:05;;;;;;;19.95;6.88;;;11.20;99.90;;;;;;4900198;29;20485;-68
2022/11/07 10:13:59;;;;;;;16.55;6.45;;;11.80;99.90;;;;;;4906888;29;20112;-64
2022/11/07 10:16:38;;;;;;;17.73;6.93;;;11.30;99.90;;;;;;4916956;29;20060;-64
2022/11/07 10:19:20;;;;;;;17.83;6.28;;;11.30;99.90;;;;;;4917778;29;20099;-64
2022/11/07 10:22:05;;;;;;;18.52;6.28;;;11.90;99.90;;;;;;4916654;29;20052;-63
2022/11/07 10:24:36;;;;;;;21.33;6.55;;;11.40;99.90;;;;;;4918046;29;20067;-64
2022/11/07 10:27:10;;;;;;;17.70;6.70;;;11.40;99.90;;;;;;4919473;29;20048;-64
2022/11/07 10:29:45;;;;;;;15.32;6.40;;;11.70;99.90;;;;;;4916012;29;20052;-64
2022/11/07 10:32:26;;;;;;;16.02;6.43;;;11.70;99.90;;;;;;4918390;29;20048;-64
2022/11/07 10:35:29;;;;;;;16.33;6.32;;;12.00;99.90;;;;;;4919165;29;20063;-64
2022/11/07 10:37:58;;;;;;;15.98;5.75;;;11.80;99.90;;;;;;4901485;29;20466;-64
2022/11/07 10:40:32;;;;;;;15.75;6.55;;;12.10;99.90;;;;;;4919226;29;20051;-64
2022/11/07 10:42:59;;;;;;;14.30;5.70;;;11.80;99.90;;;;;;4901999;29;20052;-64
2022/11/07 10:45:27;;;;;;;17.73;6.60;;;11.70;99.90;;;;;;4901667;29;20051;-64
2022/11/07 10:48:01;;;;;;;14.95;5.82;;;12.10;99.90;;;;;;4919658;29;20048;-63
2022/11/07 10:50:27;;;;;;;20.10;6.10;;;11.80;99.90;;;;;;4898210;29;20056;-64
2022/11/07 10:53:08;;;;;;;15.88;5.47;;;11.80;99.90;;;;;;4902122;29;20048;-64
2022/11/07 10:55:42;;;;;;;14.93;5.45;;;12.20;99.90;;;;;;4917203;29;20052;-63
2022/11/07 10:58:24;;;;;;;16.23;5.28;;;12.30;99.90;;;;;;4913570;29;20082;-62
2022/11/07 11:01:04;;;;;;;15.90;5.15;;;12.00;99.90;;;;;;4916690;29;20052;-62
2022/11/07 11:03:42;;;;;;;20.08;5.65;;;12.30;99.90;;;;;;4916445;29;20048;-63
2022/11/07 11:06:42;;;;;;;15.85;5.13;;;12.30;99.90;;;;;;4899375;29;20099;-62
2022/11/07 11:09:17;;;;;;;20.45;5.85;;;12.10;99.90;;;;;;4848203;29;20052;-62
2022/11/07 11:11:49;;;;;;;15.43;5.90;;;12.20;99.90;;;;;;4898968;29;20060;-64
2022/11/07 11:14:17;;;;;;;16.52;5.85;;;12.20;99.90;;;;;;4900356;29;20588;-64
2022/11/07 11:16:43;;;;;;;16.95;5.82;;;12.20;99.90;;;;;;4882648;29;20052;-64
2022/11/07 11:19:25;;;;;;;17.55;6.00;;;12.00;99.90;;;;;;4883216;29;20063;-64
2022/11/07 11:21:52;;;;;;;;;;;11.90;99.90;;;;;;4900562;29;20044;-63
2022/11/07 11:24:36;;;;;;;19.52;5.35;;;12.30;99.90;;;;;;4899474;29;20596;-65
2022/11/07 11:27:21;;;;;;;14.98;5.15;;;12.30;99.90;;;;;;4886137;29;20135;-65
2022/11/07 11:29:54;;;;;;;19.15;6.25;;;12.30;99.90;;;;;;4915715;29;20108;-63
2022/11/07 11:32:30;;;;;;;16.02;5.43;;;12.20;99.90;;;;;;4916003;29;20056;-63
2022/11/07 11:35:12;;;;;;;12.98;5.60;;;12.20;99.90;;;;;;4918192;29;20052;-62
2022/11/07 11:37:42;;;;;;;15.10;5.65;;;12.40;99.90;;;;;;4915127;29;20089;-63
2022/11/07 11:40:17;;;;;;;16.52;5.47;;;12.40;99.90;;;;;;4901395;29;20419;-63
2022/11/07 11:43:17;;;;;;;17.38;6.07;;;12.30;99.90;;;;;;4916749;29;20044;-63
2022/11/07 11:45:59;;;;;;;17.45;6.07;;;12.40;99.90;;;;;;4916949;29;20044;-62
2022/11/07 11:48:32;;;;;;;16.95;6.35;;;12.40;99.90;;;;;;4917836;29;20059;-63
2022/11/07 11:51:25;;;;;;;17.15;6.60;;;12.60;99.90;;;;;;4886728;29;20522;-62
2022/11/07 11:53:51;;;;;;;15.30;5.72;;;12.50;99.90;;;;;;4921029;29;20044;-62
2022/11/07 11:56:25;;;;;;;18.98;5.72;;;12.50;99.90;;;;;;4922475;29;20095;-63
2022/11/07 11:59:13;;;;;;;16.65;6.25;;;12.80;99.90;;;;;;4920710;29;20056;-63
2022/11/07 12:01:56;;;;;;;13.30;5.32;;;12.60;99.90;;;;;;4922334;29;20052;-64
2022/11/07 12:04:44;;;;;;;16.75;6.55;;;12.60;99.90;;;;;;4922065;29;20044;-63
2022/11/07 12:07:31;;;;;;;15.40;6.50;;;12.80;99.90;;;;;;4920740;29;20138;-63
2022/11/07 12:10:19;;;;;;;17.60;6.28;;;13.10;99.90;;;;;;4922260;29;20269;-63
2022/11/07 12:13:13;;;;;;;18.10;6.25;;;12.80;99.90;;;;;;4904817;29;20051;-63
2022/11/07 12:15:50;;;;;;;15.95;5.68;;;13.00;99.90;;;;;;4921454;29;20056;-64
2022/11/07 12:19:00;;;;;;;11.38;5.57;;;13.20;99.90;;;;;;4922745;29;20048;-64
2022/11/07 12:21:31;;;;;;;15.10;5.43;;;12.90;99.90;;;;;;4892672;29;20050;-62
2022/11/07 12:24:26;;;;;;;13.95;6.43;;;12.90;99.90;;;;;;4925068;29;20056;-64
2022/11/07 12:27:01;;;;;;;13.43;5.25;;;13.00;99.90;;;;;;4926029;29;20044;-64
2022/11/07 12:29:38;;;;;;;13.27;5.35;;;13.10;99.90;;;;;;4907940;29;20124;-64
2022/11/07 12:32:28;;;;;;;15.23;6.05;;;13.20;99.90;;;;;;4907112;29;20060;-64
2022/11/07 12:35:31;;;;;;;16.92;5.78;;;13.50;99.90;;;;;;4908328;29;20207;-63
2022/11/07 12:38:14;;;;;;;15.55;5.32;;;13.40;99.90;;;;;;4923747;29;20050;-63
2022/11/07 12:40:51;;;;;;;15.73;5.07;;;13.50;99.90;;;;;;4908152;29;20461;-63
2022/11/07 12:43:36;;;;;;;16.48;6.13;;;13.40;99.90;;;;;;4925292;29;20044;-63
2022/11/07 12:46:24;;;;;;;13.23;4.40;;;13.60;99.90;;;;;;4924331;29;20099;-64
2022/11/07 12:49:16;;;;;;;14.82;5.03;;;13.60;99.90;;;;;;4925034;29;20044;-63
2022/11/07 12:51:42;;;;;;;14.27;4.45;;;13.30;99.90;;;;;;4925393;29;20092;-64
2022/11/07 12:54:32;;;;;;;7.93;4.35;;;13.30;99.90;;;;;;4924312;29;20056;-60
2022/11/07 12:57:02;;;;;;;12.68;4.40;;;13.40;99.90;;;;;;4924922;29;20052;-63
2022/11/07 12:59:31;;;;;;;15.73;5.97;;;13.30;99.90;;;;;;4905324;29;20071;-64
2022/11/07 13:02:22;;;;;;;11.50;4.13;;;13.50;99.90;;;;;;4905931;29;20056;-63
2022/11/07 13:05:02;;;;;;;13.38;5.38;;;13.20;99.90;;;;;;4889266;29;20044;-63